createdAt,value
2018-05-26T00:02:06.152Z,13.03
2018-05-26T00:04:34.574Z,13.03
2018-05-26T00:07:02.916Z,13.23
2018-05-26T00:09:31.273Z,13.87
2018-05-26T00:11:59.593Z,12.83
2018-05-26T00:14:27.931Z,11.93
2018-05-26T00:16:56.332Z,13.20
2018-05-26T00:19:24.788Z,13.07
2018-05-26T00:21:53.179Z,11.83
2018-05-26T00:24:22.351Z,12.83
2018-05-26T00:26:51.501Z,14.27
2018-05-26T00:29:19.863Z,13.70
2018-05-26T00:31:48.989Z,12.30
2018-05-26T00:34:17.397Z,12.73
2018-05-26T00:36:45.758Z,13.83
2018-05-26T00:39:14.178Z,13.67
2018-05-26T00:41:42.560Z,14.10
2018-05-26T00:44:10.896Z,12.40
2018-05-26T00:46:39.303Z,12.70
2018-05-26T00:49:08.469Z,13.30
2018-05-26T00:51:36.832Z,14.00
2018-05-26T00:54:05.225Z,12.53
2018-05-26T00:56:33.539Z,14.13
2018-05-26T00:59:01.956Z,13.40
2018-05-26T01:01:30.317Z,12.90
2018-05-26T01:03:58.677Z,14.17
2018-05-26T01:06:27.801Z,14.23
2018-05-26T01:08:56.195Z,13.30
2018-05-26T01:11:24.655Z,13.97
2018-05-26T01:13:53.060Z,12.20
2018-05-26T01:16:21.395Z,14.80
2018-05-26T01:18:49.727Z,12.70
2018-05-26T01:21:18.141Z,14.23
2018-05-26T01:23:46.556Z,14.40
2018-05-26T01:26:15.288Z,15.20
2018-05-26T01:28:43.616Z,14.83
2018-05-26T01:31:12.776Z,13.97
2018-05-26T01:33:41.141Z,15.30
2018-05-26T01:36:09.549Z,13.60
2018-05-26T01:38:37.955Z,13.60
2018-05-26T01:41:06.310Z,13.30
2018-05-26T01:43:34.709Z,14.10
2018-05-26T01:46:03.088Z,14.63
2018-05-26T01:48:31.495Z,14.43
2018-05-26T01:50:59.827Z,13.70
2018-05-26T01:53:28.203Z,12.57
2018-05-26T01:55:56.594Z,12.90
2018-05-26T01:58:25.035Z,15.77
2018-05-26T02:00:53.378Z,14.57
2018-05-26T02:03:21.800Z,13.87
2018-05-26T02:05:50.138Z,14.40
2018-05-26T02:08:18.489Z,15.37
2018-05-26T02:10:47.600Z,16.33
2018-05-26T02:13:16.727Z,15.77
2018-05-26T02:15:45.110Z,15.03
2018-05-26T02:18:13.448Z,14.10
2018-05-26T02:20:41.844Z,13.20
2018-05-26T02:23:10.174Z,14.70
2018-05-26T02:25:39.348Z,15.17
2018-05-26T02:28:07.667Z,14.80
2018-05-26T02:30:36.803Z,13.90
2018-05-26T02:33:05.194Z,13.87
2018-05-26T02:35:33.582Z,15.77
2018-05-26T02:38:01.990Z,14.60
2018-05-26T02:40:30.377Z,16.00
2018-05-26T02:42:58.804Z,13.93
2018-05-26T02:45:27.199Z,12.67
2018-05-26T02:47:55.553Z,13.57
2018-05-26T02:50:23.944Z,15.57
2018-05-26T02:52:52.313Z,13.50
2018-05-26T02:55:21.481Z,14.07
2018-05-26T02:57:49.795Z,13.40
2018-05-26T03:00:18.923Z,14.97
2018-05-26T03:02:47.299Z,13.40
2018-05-26T03:05:21.203Z,14.40
2018-05-26T03:07:54.959Z,14.90
2018-05-26T03:10:28.931Z,14.20
2018-05-26T03:13:02.883Z,14.20
2018-05-26T03:15:31.232Z,12.57
2018-05-26T03:18:01.437Z,13.13
2018-05-26T03:20:29.855Z,14.53
2018-05-26T03:22:58.179Z,14.67
2018-05-26T03:25:26.524Z,13.87
2018-05-26T03:27:54.879Z,14.00
2018-05-26T03:30:24.044Z,13.80
2018-05-26T03:32:52.429Z,14.53
2018-05-26T03:35:20.828Z,14.90
2018-05-26T03:37:49.235Z,15.23
2018-05-26T03:40:17.579Z,16.67
2018-05-26T03:42:46.255Z,16.67
2018-05-26T03:45:15.419Z,16.37
2018-05-26T03:47:43.819Z,15.90
2018-05-26T03:50:12.168Z,16.00
2018-05-26T03:52:41.279Z,15.20
2018-05-26T03:58:42.463Z,16.10
2018-05-26T04:01:11.643Z,15.80
2018-05-26T04:03:40.048Z,15.83
2018-05-26T04:06:09.551Z,16.37
2018-05-26T04:08:37.959Z,15.47
2018-05-26T04:11:07.130Z,15.70
2018-05-26T04:13:35.472Z,15.20
2018-05-26T04:16:04.669Z,15.80
2018-05-26T04:18:33.836Z,15.60
2018-05-26T04:21:02.172Z,15.90
2018-05-26T04:23:30.556Z,15.17
2018-05-26T04:25:58.973Z,17.07
2018-05-26T04:28:28.131Z,18.27
2018-05-26T04:30:56.483Z,16.90
2018-05-26T04:33:24.834Z,18.43
2018-05-26T04:35:53.261Z,19.17
2018-05-26T04:38:22.415Z,18.27
2018-05-26T04:40:50.821Z,18.50
2018-05-26T04:43:19.170Z,20.50
2018-05-26T04:45:47.645Z,16.80
2018-05-26T04:48:16.276Z,17.53
2018-05-26T04:50:45.464Z,18.53
2018-05-26T04:53:13.863Z,17.20
2018-05-26T04:55:42.194Z,18.53
2018-05-26T04:58:10.572Z,18.20
2018-05-26T05:00:38.958Z,19.10
2018-05-26T05:03:07.323Z,18.90
2018-05-26T05:05:36.463Z,21.30
2018-05-26T05:08:05.538Z,20.80
2018-05-26T05:10:33.899Z,20.67
2018-05-26T05:13:02.289Z,18.97
2018-05-26T05:15:30.665Z,20.33
2018-05-26T05:17:59.019Z,21.43
2018-05-26T05:20:27.451Z,21.30
2018-05-26T05:23:09.849Z,22.50
2018-05-26T05:25:38.469Z,20.20
2018-05-26T05:28:06.846Z,17.97
2018-05-26T05:30:35.993Z,22.37
2018-05-26T05:33:04.407Z,21.23
2018-05-26T05:35:33.931Z,22.87
2018-05-26T05:38:02.415Z,21.40
2018-05-26T05:40:31.071Z,22.77
2018-05-26T05:43:00.219Z,21.07
2018-05-26T05:45:28.810Z,22.00
2018-05-26T05:47:57.284Z,21.13
2018-05-26T05:50:25.720Z,22.10
2018-05-26T05:52:54.146Z,21.70
2018-05-26T05:55:22.554Z,22.00
2018-05-26T05:57:50.967Z,20.97
2018-05-26T06:00:19.333Z,22.37
2018-05-26T06:02:47.764Z,22.37
2018-05-26T06:05:16.147Z,20.10
2018-05-26T06:07:44.483Z,23.07
2018-05-26T06:10:12.876Z,21.13
2018-05-26T06:12:41.243Z,21.33
2018-05-26T06:15:09.690Z,20.73
2018-05-26T06:17:39.731Z,20.53
2018-05-26T06:20:08.136Z,20.87
2018-05-26T06:22:36.575Z,19.63
2018-05-26T06:25:05.045Z,20.67
2018-05-26T06:27:33.677Z,19.10
2018-05-26T06:30:02.401Z,18.90
2018-05-26T06:32:30.858Z,18.77
2018-05-26T06:34:59.232Z,17.67
2018-05-26T06:37:27.627Z,16.67
2018-05-26T06:39:56.039Z,16.00
2018-05-26T06:42:24.426Z,16.00
2018-05-26T06:44:52.847Z,16.70
2018-05-26T06:47:21.257Z,15.93
2018-05-26T06:49:49.667Z,14.30
2018-05-26T06:52:18.051Z,13.87
2018-05-26T06:54:46.461Z,13.80
2018-05-26T06:57:14.851Z,14.00
2018-05-26T06:59:43.220Z,13.83
2018-05-26T07:02:11.603Z,12.73
2018-05-26T07:04:40.029Z,13.17
2018-05-26T07:07:08.420Z,11.57
2018-05-26T07:09:48.038Z,10.67
2018-05-26T07:12:19.198Z,10.67
2018-05-26T07:14:47.519Z,8.87
2018-05-26T07:17:15.872Z,9.67
2018-05-26T07:19:44.235Z,10.03
2018-05-26T07:22:13.541Z,8.80
2018-05-26T07:24:41.956Z,8.80
2018-05-26T07:27:16.551Z,9.47
2018-05-26T07:29:45.129Z,10.00
2018-05-26T07:32:13.539Z,9.17
2018-05-26T07:34:41.923Z,9.03
2018-05-26T07:37:10.290Z,8.90
2018-05-26T07:39:53.445Z,8.33
2018-05-26T07:42:21.818Z,8.27
2018-05-26T07:44:50.198Z,8.90
2018-05-26T07:47:18.559Z,8.37
2018-05-26T07:49:47.389Z,8.53
2018-05-26T07:52:15.790Z,8.47
2018-05-26T07:54:44.195Z,8.47
2018-05-26T07:57:12.548Z,8.00
2018-05-26T07:59:41.978Z,8.30
2018-05-26T08:02:10.484Z,9.07
2018-05-26T08:04:38.877Z,8.70
2018-05-26T08:07:07.251Z,7.97
2018-05-26T08:09:35.574Z,8.50
2018-05-26T08:12:04.735Z,8.20
2018-05-26T08:14:33.087Z,7.80
2018-05-26T08:17:01.491Z,8.10
2018-05-26T08:19:29.916Z,8.07
2018-05-26T08:21:58.291Z,7.80
2018-05-26T08:24:26.662Z,8.63
2018-05-26T08:26:55.041Z,8.13
2018-05-26T08:29:23.397Z,7.80
2018-05-26T08:31:51.725Z,8.00
2018-05-26T08:34:20.108Z,7.50
2018-05-26T08:36:49.236Z,7.57
2018-05-26T08:39:17.774Z,7.17
2018-05-26T08:41:46.121Z,7.83
2018-05-26T08:44:14.514Z,6.43
2018-05-26T08:46:42.875Z,6.83
2018-05-26T08:49:11.252Z,7.00
2018-05-26T08:51:39.587Z,6.90
2018-05-26T08:54:10.477Z,6.73
2018-05-26T08:56:38.867Z,6.33
2018-05-26T08:59:07.243Z,6.50
2018-05-26T09:01:35.587Z,6.90
2018-05-26T09:04:04.007Z,7.20
2018-05-26T09:06:32.368Z,7.10
2018-05-26T09:09:00.716Z,6.63
2018-05-26T09:11:29.092Z,5.90
2018-05-26T09:13:57.468Z,6.40
2018-05-26T09:16:25.819Z,6.20
2018-05-26T09:18:54.161Z,6.77
2018-05-26T09:21:22.503Z,6.03
2018-05-26T09:23:50.884Z,6.37
2018-05-26T09:26:19.314Z,6.47
2018-05-26T09:28:47.726Z,5.87
2018-05-26T09:31:16.148Z,6.03
2018-05-26T09:33:44.552Z,5.57
2018-05-26T09:36:12.952Z,5.57
2018-05-26T09:38:51.147Z,5.60
2018-05-26T09:41:29.618Z,5.23
2018-05-26T09:43:58.101Z,5.10
2018-05-26T09:46:26.568Z,5.47
2018-05-26T09:48:54.967Z,4.60
2018-05-26T09:51:23.446Z,5.47
2018-05-26T09:53:52.670Z,5.77
2018-05-26T09:59:13.015Z,5.07
2018-05-26T10:01:41.445Z,5.77
2018-05-26T10:04:09.935Z,5.27
2018-05-26T10:06:38.284Z,5.03
2018-05-26T10:09:06.745Z,5.20
2018-05-26T10:11:35.262Z,5.40
2018-05-26T10:14:03.756Z,5.10
2018-05-26T10:16:32.191Z,4.67
2018-05-26T10:19:00.630Z,4.80
2018-05-26T10:21:29.003Z,4.60
2018-05-26T10:23:57.480Z,5.60
2018-05-26T10:26:25.938Z,5.50
2018-05-26T10:28:54.415Z,5.40
2018-05-26T10:31:22.818Z,4.93
2018-05-26T10:33:51.250Z,4.77
2018-05-26T10:36:19.655Z,5.73
2018-05-26T10:38:48.100Z,5.43
2018-05-26T10:41:16.566Z,5.60
2018-05-26T10:43:45.057Z,5.33
2018-05-26T10:46:25.884Z,4.80
2018-05-26T10:48:54.317Z,5.00
2018-05-26T10:51:22.768Z,4.57
2018-05-26T10:53:51.338Z,5.50
2018-05-26T10:56:19.885Z,4.90
2018-05-26T10:58:48.658Z,4.97
2018-05-26T11:01:17.135Z,5.60
2018-05-26T11:03:45.573Z,5.47
2018-05-26T11:06:14.084Z,5.87
2018-05-26T11:08:42.621Z,5.80
2018-05-26T11:14:21.297Z,5.23
2018-05-26T11:16:49.693Z,5.97
2018-05-26T11:19:18.087Z,5.67
2018-05-26T11:21:46.411Z,6.07
2018-05-26T11:24:26.665Z,5.40
2018-05-26T11:26:55.521Z,5.50
2018-05-26T11:29:23.911Z,6.10
2018-05-26T11:32:02.628Z,6.07
2018-05-26T11:34:37.664Z,6.50
2018-05-26T11:37:06.019Z,5.70
2018-05-26T11:42:57.926Z,6.90
2018-05-26T11:45:29.103Z,5.60
2018-05-26T11:47:57.443Z,5.93
2018-05-26T11:50:25.769Z,5.77
2018-05-26T11:52:54.158Z,6.00
2018-05-26T11:55:22.596Z,5.63
2018-05-26T11:57:50.980Z,6.17
2018-05-26T12:00:20.587Z,6.43
2018-05-26T12:02:49.065Z,6.33
2018-05-26T12:05:17.725Z,6.10
2018-05-26T12:07:55.554Z,5.37
2018-05-26T12:10:24.531Z,6.03
2018-05-26T12:12:52.947Z,6.43
2018-05-26T12:15:21.284Z,5.70
2018-05-26T12:17:49.683Z,6.47
2018-05-26T12:20:18.260Z,5.97
2018-05-26T12:22:46.620Z,6.57
2018-05-26T12:25:15.064Z,6.73
2018-05-26T12:27:43.443Z,5.93
2018-05-26T12:30:11.809Z,7.00
2018-05-26T12:32:40.147Z,5.77
2018-05-26T12:38:18.675Z,6.50
2018-05-26T12:40:47.039Z,6.07
2018-05-26T12:43:15.459Z,5.90
2018-05-26T12:45:43.793Z,6.70
2018-05-26T12:48:12.984Z,6.70
2018-05-26T12:50:41.349Z,6.40
2018-05-26T12:53:09.712Z,6.27
2018-05-26T12:55:38.156Z,6.03
2018-05-26T12:58:06.500Z,6.13
2018-05-26T13:00:34.887Z,5.67
2018-05-26T13:03:03.277Z,5.80
2018-05-26T13:05:31.656Z,6.30
2018-05-26T13:08:00.827Z,6.10
2018-05-26T13:10:31.882Z,6.10
2018-05-26T13:13:00.393Z,5.80
2018-05-26T13:15:28.870Z,5.83
2018-05-26T13:17:57.584Z,5.33
2018-05-26T13:20:26.121Z,5.70
2018-05-26T13:22:54.523Z,5.80
2018-05-26T13:25:22.961Z,5.67
2018-05-26T13:27:51.359Z,5.80
2018-05-26T13:30:19.748Z,5.93
2018-05-26T13:32:48.102Z,5.40
2018-05-26T13:35:16.476Z,6.57
2018-05-26T13:37:44.812Z,5.40
2018-05-26T13:40:13.157Z,6.27
2018-05-26T13:42:41.533Z,6.00
2018-05-26T13:45:09.916Z,6.20
2018-05-26T13:47:38.319Z,5.30
2018-05-26T13:50:06.716Z,5.33
2018-05-26T13:52:41.697Z,5.80
2018-05-26T13:55:10.152Z,5.40
2018-05-26T13:57:38.474Z,5.40
2018-05-26T14:00:06.838Z,5.13
2018-05-26T14:02:35.256Z,5.13
2018-05-26T14:05:03.647Z,5.70
2018-05-26T14:07:32.210Z,5.90
2018-05-26T14:10:00.678Z,4.50
2018-05-26T14:12:29.454Z,5.90
2018-05-26T14:14:57.783Z,5.60
2018-05-26T14:17:26.207Z,6.40
2018-05-26T14:20:00.932Z,5.03
2018-05-26T14:22:29.341Z,5.13
2018-05-26T14:25:01.109Z,5.17
2018-05-26T14:27:29.741Z,4.97
2018-05-26T14:29:59.475Z,5.73
2018-05-26T14:32:27.881Z,5.70
2018-05-26T14:34:56.296Z,4.90
2018-05-26T14:37:24.692Z,5.47
2018-05-26T14:39:53.040Z,5.50
2018-05-26T14:42:21.360Z,5.30
2018-05-26T14:44:49.786Z,5.37
2018-05-26T14:47:18.119Z,5.80
2018-05-26T14:49:46.498Z,5.70
2018-05-26T14:52:14.809Z,5.03
2018-05-26T14:54:43.188Z,6.20
2018-05-26T14:57:11.514Z,5.77
2018-05-26T14:59:39.864Z,5.63
2018-05-26T15:02:08.167Z,5.47
2018-05-26T15:04:36.563Z,6.20
2018-05-26T15:07:04.954Z,5.30
2018-05-26T15:09:33.345Z,6.10
2018-05-26T15:12:01.956Z,5.63
2018-05-26T15:14:30.286Z,5.20
2018-05-26T15:16:58.642Z,5.27
2018-05-26T15:22:36.557Z,5.33
2018-05-26T15:25:04.931Z,5.33
2018-05-26T15:27:33.292Z,5.80
2018-05-26T15:30:01.627Z,4.43
2018-05-26T15:32:29.960Z,5.83
2018-05-26T15:34:58.395Z,4.83
2018-05-26T15:37:26.776Z,6.00
2018-05-26T15:39:55.875Z,5.70
2018-05-26T15:42:24.250Z,6.40
2018-05-26T15:44:52.581Z,15.17
2018-05-26T15:47:20.935Z,27.73
2018-05-26T15:49:49.302Z,32.70
2018-05-26T15:52:18.375Z,6.40
2018-05-26T15:54:46.826Z,9.90
2018-05-26T15:57:15.203Z,6.73
2018-05-26T15:59:43.544Z,6.50
2018-05-26T16:02:11.883Z,5.67
2018-05-26T16:04:40.215Z,8.80
2018-05-26T16:07:08.619Z,20.90
2018-05-26T16:09:36.993Z,60.23
2018-05-26T16:12:05.295Z,50.47
2018-05-26T16:14:33.611Z,11.07
2018-05-26T16:17:01.946Z,6.10
2018-05-26T16:19:30.252Z,27.73
2018-05-26T16:21:58.623Z,11.33
2018-05-26T16:24:26.989Z,8.53
2018-05-26T16:26:56.431Z,14.00
2018-05-26T16:29:24.859Z,8.10
2018-05-26T16:31:53.959Z,11.47
2018-05-26T16:34:22.297Z,17.83
2018-05-26T16:36:50.630Z,27.50
2018-05-26T16:39:18.952Z,8.80
2018-05-26T16:41:47.366Z,107.40
2018-05-26T16:44:15.696Z,67.83
2018-05-26T16:46:44.069Z,27.80
2018-05-26T16:49:12.407Z,13.27
2018-05-26T16:51:40.733Z,13.07
2018-05-26T16:54:09.091Z,9.57
2018-05-26T16:56:37.405Z,6.87
2018-05-26T16:59:08.262Z,8.30
2018-05-26T17:01:36.584Z,31.57
2018-05-26T17:04:04.929Z,10.47
2018-05-26T17:06:33.266Z,7.60
2018-05-26T17:09:01.612Z,7.50
2018-05-26T17:11:29.972Z,6.60
2018-05-26T17:13:58.289Z,8.70
2018-05-26T17:16:26.669Z,7.00
2018-05-26T17:18:55.060Z,51.73
2018-05-26T17:21:23.532Z,12.20
2018-05-26T17:23:52.620Z,8.90
2018-05-26T17:26:20.998Z,9.43
2018-05-26T17:28:49.354Z,13.03
2018-05-26T17:31:17.683Z,14.37
2018-05-26T17:33:46.032Z,8.50
2018-05-26T17:36:14.861Z,8.53
2018-05-26T17:38:43.222Z,7.53
2018-05-26T17:41:11.541Z,7.07
2018-05-26T17:43:39.861Z,6.27
2018-05-26T17:46:08.267Z,6.97
2018-05-26T17:48:36.670Z,5.93
2018-05-26T17:51:04.997Z,7.00
2018-05-26T17:53:33.333Z,6.90
2018-05-26T17:56:01.761Z,7.13
2018-05-26T17:58:30.097Z,7.27
2018-05-26T18:00:58.431Z,7.10
2018-05-26T18:03:26.770Z,6.37
2018-05-26T18:05:55.087Z,6.60
2018-05-26T18:08:23.463Z,6.23
2018-05-26T18:10:53.113Z,5.90
2018-05-26T18:13:21.507Z,6.63
2018-05-26T18:15:49.895Z,5.87
2018-05-26T18:18:18.389Z,6.63
2018-05-26T18:20:46.799Z,6.63
2018-05-26T18:23:15.124Z,6.47
2018-05-26T18:25:43.466Z,7.07
2018-05-26T18:28:11.787Z,6.07
2018-05-26T18:30:40.141Z,6.53
2018-05-26T18:33:08.462Z,6.50
2018-05-26T18:35:37.543Z,6.00
2018-05-26T18:38:05.993Z,6.40
2018-05-26T18:40:34.493Z,6.53
2018-05-26T18:43:02.831Z,6.30
2018-05-26T18:45:31.148Z,5.27
2018-05-26T18:47:59.484Z,7.30
2018-05-26T18:50:31.799Z,6.97
2018-05-26T18:53:03.091Z,7.50
2018-05-26T18:55:31.408Z,6.80
2018-05-26T18:57:59.747Z,7.70
2018-05-26T19:00:28.063Z,7.50
2018-05-26T19:02:56.415Z,7.83
2018-05-26T19:05:24.750Z,7.20
2018-05-26T19:07:53.182Z,7.53
2018-05-26T19:10:21.515Z,7.20
2018-05-26T19:12:49.904Z,7.70
2018-05-26T19:15:18.235Z,7.20
2018-05-26T19:17:46.552Z,7.00
2018-05-26T19:20:14.893Z,6.57
2018-05-26T19:22:43.216Z,6.80
2018-05-26T19:25:11.547Z,7.40
2018-05-26T19:27:40.629Z,6.90
2018-05-26T19:30:08.979Z,8.20
2018-05-26T19:32:37.295Z,8.30
2018-05-26T19:35:05.620Z,7.37
2018-05-26T19:37:33.955Z,7.37
2018-05-26T19:40:02.288Z,8.17
2018-05-26T19:42:30.622Z,7.87
2018-05-26T19:44:58.984Z,7.67
2018-05-26T19:47:27.327Z,7.30
2018-05-26T19:49:55.668Z,7.80
2018-05-26T19:52:24.000Z,7.87
2018-05-26T19:54:52.318Z,7.30
2018-05-26T19:57:20.639Z,8.23
2018-05-26T19:59:48.955Z,8.10
2018-05-26T20:02:17.270Z,8.07
2018-05-26T20:04:45.576Z,8.83
2018-05-26T20:07:13.924Z,8.53
2018-05-26T20:09:42.264Z,10.47
2018-05-26T20:12:10.642Z,9.90
2018-05-26T20:14:38.999Z,8.47
2018-05-26T20:17:07.334Z,9.97
2018-05-26T20:19:35.740Z,9.07
2018-05-26T20:22:04.083Z,8.90
2018-05-26T20:24:32.411Z,8.73
2018-05-26T20:27:00.760Z,9.63
2018-05-26T20:29:29.131Z,9.20
2018-05-26T20:31:57.508Z,10.27
2018-05-26T20:34:25.980Z,9.50
2018-05-26T20:36:54.298Z,10.70
2018-05-26T20:39:23.559Z,11.13
2018-05-26T20:41:51.926Z,10.53
2018-05-26T20:44:20.274Z,10.03
2018-05-26T20:46:48.598Z,10.77
2018-05-26T20:49:17.667Z,9.97
2018-05-26T20:51:46.044Z,9.47
2018-05-26T20:54:14.354Z,10.63
2018-05-26T20:56:42.696Z,9.77
2018-05-26T20:59:11.062Z,9.40
2018-05-26T21:01:39.395Z,9.13
2018-05-26T21:04:07.760Z,9.20
2018-05-26T21:06:36.128Z,9.60
2018-05-26T21:09:05.138Z,9.13
2018-05-26T21:11:33.462Z,9.00
2018-05-26T21:14:01.844Z,9.43
2018-05-26T21:16:30.163Z,11.57
2018-05-26T21:18:58.554Z,9.97
2018-05-26T21:21:26.911Z,10.17
2018-05-26T21:23:55.239Z,10.83
2018-05-26T21:26:23.637Z,10.17
2018-05-26T21:28:51.983Z,10.83
2018-05-26T21:31:21.135Z,14.77
2018-05-26T21:33:49.466Z,14.80
2018-05-26T21:36:17.842Z,13.90
2018-05-26T21:38:46.199Z,13.30
2018-05-26T21:41:14.533Z,12.70
2018-05-26T21:43:42.872Z,13.50
2018-05-26T21:46:11.999Z,11.67
2018-05-26T21:48:40.319Z,11.90
2018-05-26T21:51:08.644Z,11.80
2018-05-26T21:53:36.997Z,12.73
2018-05-26T21:56:05.374Z,12.07
2018-05-26T21:58:33.699Z,11.97
2018-05-26T22:01:02.019Z,13.70
2018-05-26T22:03:31.167Z,12.17
2018-05-26T22:05:59.488Z,12.00
2018-05-26T22:08:27.823Z,12.33
2018-05-26T22:10:56.907Z,15.10
2018-05-26T22:13:25.271Z,14.50
2018-05-26T22:15:53.657Z,14.00
2018-05-26T22:18:22.025Z,13.77
2018-05-26T22:20:50.333Z,12.37
2018-05-26T22:23:18.677Z,10.97
2018-05-26T22:25:47.003Z,10.97
2018-05-26T22:28:15.347Z,11.37
2018-05-26T22:30:43.686Z,11.70
2018-05-26T22:33:12.015Z,11.83
2018-05-26T22:35:40.390Z,11.30
2018-05-26T22:38:08.723Z,12.50
2018-05-26T22:40:37.039Z,11.73
2018-05-26T22:43:05.376Z,10.67
2018-05-26T22:45:33.725Z,11.80
2018-05-26T22:48:02.055Z,10.60
2018-05-26T22:50:30.379Z,12.10
2018-05-26T22:52:58.716Z,12.17
2018-05-26T22:55:27.058Z,12.33
2018-05-26T22:57:55.428Z,11.80
2018-05-26T23:00:27.643Z,13.20
2018-05-26T23:02:56.043Z,10.93
2018-05-26T23:05:24.367Z,12.40
2018-05-26T23:07:52.679Z,12.90
2018-05-26T23:10:21.072Z,12.33
2018-05-26T23:12:50.117Z,14.50
2018-05-26T23:15:19.466Z,12.30
2018-05-26T23:17:47.803Z,13.40
2018-05-26T23:20:16.160Z,12.10
2018-05-26T23:22:44.479Z,12.77
2018-05-26T23:25:12.815Z,12.73
2018-05-26T23:27:41.183Z,13.63
2018-05-26T23:30:09.567Z,12.70
2018-05-26T23:32:37.954Z,14.27
2018-05-26T23:35:06.342Z,12.47
2018-05-26T23:37:34.730Z,13.23
2018-05-26T23:40:03.043Z,13.10
2018-05-26T23:42:31.443Z,13.40
2018-05-26T23:44:59.748Z,13.63
2018-05-26T23:47:28.120Z,13.60
2018-05-26T23:50:03.692Z,14.07
2018-05-26T23:52:32.083Z,14.07
2018-05-26T23:55:00.419Z,21.00
2018-05-26T23:57:28.787Z,30.30
2018-05-26T23:59:57.107Z,25.07
